Evelyn Doris — WDD5558 — position and weather

sailwx.info

Track history (hours):
 
Tides and Currents Weather Stations Pressure Air Temp Water Temp Dewpoint Dewpoint Depression Visibility Wind Speed Wind Dir Waves Ship Positions

Evelyn Doris

Owner: Intracoastal Marine, Inc., Coinjock, NC. More information available from US FCC via Universal Licensing System and Coast Guard Vessel Documentation Center.

Last reported at 2018-Feb-20 12:10 UTC. Time now 2018-Feb-20 19:37 UTC.
Position N 36°49' W 076°17'.

Length 19 m; draft 3.3 m.

Type: Tug. MMSI: 367160060.

Date/timePositionNaut miles runAvg speedWind from/ knotsBaromVisibWave heightAir tempDewpointWater temp
2018-Feb-20 12:10N 36°49' W 076°17'0 0.0
2018-Feb-20 10:38N 36°49' W 076°17'0 0.1
2018-Feb-20 10:30N 36°49' W 076°17'2 4.2
2018-Feb-20 10:00N 36°46' W 076°18'1 1.5
2018-Feb-20 09:30N 36°46' W 076°18'0 0.0
2018-Feb-20 09:00N 36°46' W 076°18'0 0.0
2018-Feb-20 08:30N 36°46' W 076°18'0 0.1
2018-Feb-20 08:00N 36°46' W 076°18'0 0.7
2018-Feb-20 07:30N 36°45' W 076°18'2 3.3
2018-Feb-20 07:00N 36°44' W 076°17'2 2.0
2018-Feb-20 06:09N 36°43' W 076°15'1 3.5
2018-Feb-20 06:00N 36°43' W 076°14'1 0.0
2018-Feb-18 06:12N 36°43' W 076°13'1 3.6
2018-Feb-18 05:54N 36°43' W 076°14'1 1.9
2018-Feb-18 05:29N 36°43' W 076°15'0 0.2
2018-Feb-18 05:00N 36°43' W 076°15'2 3.6
2018-Feb-18 04:31N 36°44' W 076°17'2 4.1
2018-Feb-18 04:01N 36°46' W 076°18'1 1.4
2018-Feb-18 03:30N 36°47' W 076°18'0 0.0
2018-Feb-18 03:01N 36°47' W 076°18'0 0.2
2018-Feb-18 02:30N 36°47' W 076°18'1 1.2
2018-Feb-18 02:00N 36°47' W 076°18'2 0.1
2018-Feb-16 17:36N 36°49' W 076°17'0 1.9
2018-Feb-16 17:31N 36°48' W 076°17'3 5.0
2018-Feb-16 17:00N 36°46' W 076°18'0 0.1
2018-Feb-16 16:30N 36°46' W 076°18'1 2.0
2018-Feb-16 16:00N 36°45' W 076°18'2 4.8
2018-Feb-16 15:30N 36°44' W 076°15'1 2.0
2018-Feb-16 14:58N 36°43' W 076°14'0 0.0
2018-Feb-16 14:31N 36°43' W 076°14'7 4.5
2018-Feb-16 13:01N 36°43' W 076°06'0 5.0
2018-Feb-16 13:00N 36°43' W 076°06'3 4.9
2018-Feb-16 12:28N 36°41' W 076°04'7 0.2
2018-Feb-15 01:59N 36°43' W 076°13'2 3.7
2018-Feb-15 01:31N 36°43' W 076°15'1 1.5
2018-Feb-15 01:00N 36°44' W 076°16'2 3.9
2018-Feb-15 00:30N 36°45' W 076°18'1 2.5
2018-Feb-15 00:01N 36°46' W 076°18'0 0.0
2018-Feb-14 23:31N 36°46' W 076°18'2 3.5
2018-Feb-14 23:00N 36°48' W 076°18'3 5.9
2018-Feb-14 22:31N 36°51' W 076°17'2 2.1
2018-Feb-14 21:36N 36°50' W 076°15'0 4.0
2018-Feb-14 21:30N 36°50' W 076°15'1 2.9
2018-Feb-14 21:01N 36°50' W 076°17'3 5.6
2018-Feb-14 20:31N 36°52' W 076°20'1 1.5
2018-Feb-14 20:01N 36°53' W 076°20'0 0.0
2018-Feb-14 14:10N 36°53' W 076°20'0 0.0
2018-Feb-14 14:00N 36°53' W 076°20'1 1.7
2018-Feb-14 13:30N 36°54' W 076°20'3 5.4
2018-Feb-14 13:00N 36°56' W 076°20'1 0.9
2018-Feb-14 12:24N 36°57' W 076°20'1 2.0
2018-Feb-14 11:59N 36°56' W 076°20'0 1.0
2018-Feb-14 11:28N 36°56' W 076°20'3 5.5
2018-Feb-14 10:59N 36°53' W 076°20'0 0.2
2018-Feb-14 10:31N 36°53' W 076°20'2 3.3
2018-Feb-14 10:01N 36°52' W 076°19'3 5.7
2018-Feb-14 09:30N 36°49' W 076°17'1 2.4
2018-Feb-14 09:01N 36°48' W 076°17'0 0.0
2018-Feb-14 08:30N 36°48' W 076°17'1 1.2
2018-Feb-14 08:01N 36°49' W 076°17'0 0.0
2018-Feb-14 07:31N 36°49' W 076°17'0 0.0
2018-Feb-14 07:00N 36°49' W 076°17'0 0.0
2018-Feb-14 06:16N 36°49' W 076°17'0 0.0
2018-Feb-14 06:00N 36°49' W 076°17'0 0.0
2018-Feb-14 05:30N 36°49' W 076°17'0 0.0
2018-Feb-14 05:00N 36°49' W 076°17'0 0.0
2018-Feb-14 04:30N 36°49' W 076°17'0 0.0
2018-Feb-14 04:00N 36°49' W 076°17'0 0.0
2018-Feb-14 03:30N 36°49' W 076°17'0 0.0
2018-Feb-14 03:00N 36°49' W 076°17'0 0.0
2018-Feb-14 02:30N 36°49' W 076°17'0 0.0
2018-Feb-14 02:00N 36°49' W 076°17'0 0.0
2018-Feb-14 01:31N 36°49' W 076°17'0 0.0
2018-Feb-14 01:00N 36°48' W 076°17'0 0.1
2018-Feb-14 00:30N 36°49' W 076°17'0 0.0
2018-Feb-14 00:00N 36°49' W 076°17'0 0.0
2018-Feb-13 23:30N 36°49' W 076°17'2 4.3
2018-Feb-13 23:00N 36°51' W 076°18'3 6.2
2018-Feb-13 22:28N 36°53' W 076°20'0 0.6
2018-Feb-13 22:00N 36°53' W 076°20'0 0.2
2018-Feb-13 21:30N 36°53' W 076°20'2 4.8
2018-Feb-13 21:00N 36°55' W 076°20'1 1.8
2018-Feb-13 20:26N 36°56' W 076°20'0 1.1
2018-Feb-13 19:59N 36°56' W 076°20'2 3.6
2018-Feb-13 19:29N 36°54' W 076°20'4 7.4
2018-Feb-13 19:00N 36°51' W 076°18'2 4.7
2018-Feb-13 18:30N 36°49' W 076°17'0 0.8
2018-Feb-13 18:00N 36°49' W 076°17'0 0.0
2018-Feb-13 17:30N 36°48' W 076°17'0 0.0
2018-Feb-13 17:00N 36°48' W 076°17'0 0.0
2018-Feb-13 16:30N 36°48' W 076°17'0 0.0
2018-Feb-13 16:00N 36°48' W 076°17'0 0.0
2018-Feb-13 15:30N 36°48' W 076°17'1 1.1
2018-Feb-13 15:00N 36°48' W 076°18'2 3.2
2018-Feb-13 14:30N 36°46' W 076°18'0 0.2
2018-Feb-13 14:00N 36°46' W 076°18'1 1.0
2018-Feb-13 13:30N 36°47' W 076°18'3 5.4
2018-Feb-13 13:00N 36°49' W 076°17'1 2.5
2018-Feb-13 12:30N 36°50' W 076°17'2 0.1
2018-Feb-12 19:35N 36°48' W 076°17'1 7.2
2018-Feb-12 19:30N 36°48' W 076°18'2 3.6
2018-Feb-12 19:00N 36°46' W 076°18'1 1.5
2018-Feb-12 18:30N 36°47' W 076°18'1 2.3
2018-Feb-12 18:00N 36°48' W 076°18'0 0.0
2018-Feb-12 17:30N 36°48' W 076°18'1 1.0
2018-Feb-12 16:34N 36°48' W 076°17'0 0.0
2018-Feb-12 16:31N 36°48' W 076°17'1 3.0
2018-Feb-12 16:01N 36°47' W 076°18'1 2.6
2018-Feb-12 15:30N 36°46' W 076°18'0 0.1
2018-Feb-12 15:00N 36°46' W 076°18'0 0.0
2018-Feb-12 14:30N 36°46' W 076°18'2 4.3
2018-Feb-12 14:01N 36°48' W 076°18'3 5.6
2018-Feb-12 13:31N 36°51' W 076°18'3 5.3
2018-Feb-12 13:00N 36°53' W 076°20'0 0.3
2018-Feb-12 12:30N 36°53' W 076°20'0 0.1
2018-Feb-12 11:59N 36°53' W 076°20'3 5.7
2018-Feb-12 11:30N 36°51' W 076°18'3 5.2
2018-Feb-12 11:00N 36°49' W 076°17'0 0.0
2018-Feb-12 10:31N 36°49' W 076°17'0 0.0
2018-Feb-12 10:00N 36°49' W 076°17'0 0.0
2018-Feb-12 09:31N 36°49' W 076°17'0 0.0
2018-Feb-12 09:00N 36°49' W 076°17'0 0.0
2018-Feb-12 08:31N 36°49' W 076°17'0 0.0
2018-Feb-12 08:01N 36°49' W 076°17'0 0.0
2018-Feb-12 07:30N 36°49' W 076°17'0 0.0
2018-Feb-12 07:01N 36°49' W 076°17'0 0.0
2018-Feb-12 06:31N 36°49' W 076°17'0 0.0
2018-Feb-12 06:01N 36°49' W 076°17'0 0.0
2018-Feb-12 05:31N 36°49' W 076°17'0 0.0
2018-Feb-12 05:00N 36°49' W 076°17'0 0.0
2018-Feb-12 04:31N 36°49' W 076°17'0 0.0
2018-Feb-12 04:00N 36°49' W 076°17'0 0.0
2018-Feb-12 03:31N 36°49' W 076°17'0 0.0
2018-Feb-12 03:00N 36°49' W 076°17'0 0.0
2018-Feb-12 02:31N 36°49' W 076°17'0 0.0
2018-Feb-12 01:59N 36°49' W 076°17'0 0.0
2018-Feb-12 01:31N 36°49' W 076°17'0 0.0
2018-Feb-12 01:01N 36°49' W 076°17'0 0.0
2018-Feb-12 00:30N 36°49' W 076°17'0 0.0
2018-Feb-12 00:00N 36°49' W 076°17'0 0.0
2018-Feb-11 23:30N 36°49' W 076°17'0 0.0
2018-Feb-11 23:01N 36°49' W 076°17'0 0.0
2018-Feb-11 22:30N 36°49' W 076°17'0 0.0
2018-Feb-11 22:01N 36°49' W 076°17'0 0.0
2018-Feb-11 21:30N 36°49' W 076°17'0 0.0
2018-Feb-11 21:01N 36°49' W 076°17'0 0.1
2018-Feb-11 20:31N 36°48' W 076°17'0 0.0
2018-Feb-11 20:01N 36°48' W 076°17'0 0.0
2018-Feb-11 19:31N 36°48' W 076°17'0 0.1
2018-Feb-11 19:01N 36°49' W 076°17'0 0.0
2018-Feb-11 18:31N 36°48' W 076°17'0 0.0
2018-Feb-11 18:00N 36°49' W 076°17'0 0.0
2018-Feb-11 17:30N 36°49' W 076°17'0 0.0
2018-Feb-11 17:00N 36°49' W 076°17'0 0.0
2018-Feb-11 16:30N 36°48' W 076°17'0 0.0
2018-Feb-11 16:00N 36°49' W 076°17'0 0.0
2018-Feb-11 15:30N 36°49' W 076°17'0 0.0
2018-Feb-11 15:00N 36°48' W 076°17'0 0.0
2018-Feb-11 14:30N 36°48' W 076°17'0 0.0
2018-Feb-11 14:00N 36°49' W 076°17'0 0.0
2018-Feb-11 13:30N 36°49' W 076°17'0 0.0
2018-Feb-11 13:00N 36°48' W 076°17'0 0.0
2018-Feb-11 12:30N 36°49' W 076°17'0 0.0
2018-Feb-11 12:00N 36°48' W 076°17'0 0.0
2018-Feb-11 11:30N 36°48' W 076°17'0 0.0
2018-Feb-11 11:00N 36°49' W 076°17'0 0.0
2018-Feb-11 10:30N 36°48' W 076°17'0 0.0
2018-Feb-11 10:00N 36°49' W 076°17'0 0.0
2018-Feb-11 09:30N 36°49' W 076°17'0 0.0
2018-Feb-11 09:00N 36°49' W 076°17'0 0.0
2018-Feb-11 08:30N 36°48' W 076°17'0 0.0
2018-Feb-11 08:00N 36°49' W 076°17'0 0.0
2018-Feb-11 07:30N 36°49' W 076°17'0 0.0
2018-Feb-11 07:00N 36°48' W 076°17'0 0.0
2018-Feb-11 06:30N 36°48' W 076°17'0 0.0
2018-Feb-11 06:00N 36°49' W 076°17'0 0.0
2018-Feb-11 05:30N 36°48' W 076°17'0 0.0
2018-Feb-11 05:00N 36°48' W 076°17'0 0.0
2018-Feb-11 04:30N 36°48' W 076°17'0 0.0
2018-Feb-11 04:00N 36°49' W 076°17'0 0.0
2018-Feb-11 03:30N 36°49' W 076°17'0 0.0
2018-Feb-11 03:00N 36°49' W 076°17'0 0.0
2018-Feb-11 02:30N 36°48' W 076°17'0 0.0
2018-Feb-11 02:00N 36°48' W 076°17'0 0.0
2018-Feb-11 01:30N 36°49' W 076°17'0 0.0
2018-Feb-11 01:00N 36°48' W 076°17'0 0.0
2018-Feb-11 00:30N 36°48' W 076°17'0 0.0
2018-Feb-11 00:00N 36°48' W 076°17'0 0.0
2018-Feb-10 23:30N 36°48' W 076°17'0 0.0
2018-Feb-10 23:00N 36°49' W 076°17'0 0.0
2018-Feb-10 22:30N 36°48' W 076°17'0 0.0
2018-Feb-10 22:00N 36°49' W 076°17'0 0.0
2018-Feb-10 21:30N 36°48' W 076°17'0 0.0
2018-Feb-10 21:00N 36°48' W 076°17'0 0.0
2018-Feb-10 20:30N 36°49' W 076°17'0 0.0
2018-Feb-10 20:00N 36°48' W 076°17'0 0.0
2018-Feb-10 19:30N 36°49' W 076°17'0 0.0
2018-Feb-10 19:00N 36°48' W 076°17'0 0.0
2018-Feb-10 18:30N 36°48' W 076°17'0 0.0
2018-Feb-10 18:00N 36°49' W 076°17'0 0.0
2018-Feb-10 17:30N 36°49' W 076°17'0 0.0
2018-Feb-10 17:00N 36°49' W 076°17'0 0.0
2018-Feb-10 16:30N 36°48' W 076°17'0 0.0
2018-Feb-10 16:00N 36°48' W 076°17'0 0.0
2018-Feb-10 15:30N 36°48' W 076°17'0 0.0
2018-Feb-10 15:00N 36°49' W 076°17'0 0.0
2018-Feb-10 14:30N 36°49' W 076°17'0 0.0
2018-Feb-10 14:00N 36°48' W 076°17'0 0.0
2018-Feb-10 13:30N 36°49' W 076°17'0 0.0
2018-Feb-10 13:00N 36°49' W 076°17'0 0.0
2018-Feb-10 12:30N 36°48' W 076°17'  
Track history (hours):
 
Tides and Currents Weather Stations Pressure Air Temp Water Temp Dewpoint Dewpoint Depression Visibility Wind Speed Wind Dir Waves Ship Positions

Evelyn Doris

Owner: Intracoastal Marine, Inc., Coinjock, NC. More information available from US FCC via Universal Licensing System and Coast Guard Vessel Documentation Center.

Last reported at 2018-Feb-20 12:10 UTC. Time now 2018-Feb-20 19:37 UTC.
Position N 36°49' W 076°17'.

Length 19 m; draft 3.3 m.

Type: Tug. MMSI: 367160060.

Date/timePositionNaut miles runAvg speedWind from/ knotsBaromVisibWave heightAir tempDewpointWater temp
2018-Feb-20 12:10N 36°49' W 076°17'0 0.0
2018-Feb-20 10:38N 36°49' W 076°17'0 0.1
2018-Feb-20 10:30N 36°49' W 076°17'2 4.2
2018-Feb-20 10:00N 36°46' W 076°18'1 1.5
2018-Feb-20 09:30N 36°46' W 076°18'0 0.0
2018-Feb-20 09:00N 36°46' W 076°18'0 0.0
2018-Feb-20 08:30N 36°46' W 076°18'0 0.1
2018-Feb-20 08:00N 36°46' W 076°18'0 0.7
2018-Feb-20 07:30N 36°45' W 076°18'2 3.3
2018-Feb-20 07:00N 36°44' W 076°17'2 2.0
2018-Feb-20 06:09N 36°43' W 076°15'1 3.5
2018-Feb-20 06:00N 36°43' W 076°14'1 0.0
2018-Feb-18 06:12N 36°43' W 076°13'1 3.6
2018-Feb-18 05:54N 36°43' W 076°14'1 1.9
2018-Feb-18 05:29N 36°43' W 076°15'0 0.2
2018-Feb-18 05:00N 36°43' W 076°15'2 3.6
2018-Feb-18 04:31N 36°44' W 076°17'2 4.1
2018-Feb-18 04:01N 36°46' W 076°18'1 1.4
2018-Feb-18 03:30N 36°47' W 076°18'0 0.0
2018-Feb-18 03:01N 36°47' W 076°18'0 0.2
2018-Feb-18 02:30N 36°47' W 076°18'1 1.2
2018-Feb-18 02:00N 36°47' W 076°18'2 0.1
2018-Feb-16 17:36N 36°49' W 076°17'0 1.9
2018-Feb-16 17:31N 36°48' W 076°17'3 5.0
2018-Feb-16 17:00N 36°46' W 076°18'0 0.1
2018-Feb-16 16:30N 36°46' W 076°18'1 2.0
2018-Feb-16 16:00N 36°45' W 076°18'2 4.8
2018-Feb-16 15:30N 36°44' W 076°15'1 2.0
2018-Feb-16 14:58N 36°43' W 076°14'0 0.0
2018-Feb-16 14:31N 36°43' W 076°14'7 4.5
2018-Feb-16 13:01N 36°43' W 076°06'0 5.0
2018-Feb-16 13:00N 36°43' W 076°06'3 4.9
2018-Feb-16 12:28N 36°41' W 076°04'7 0.2
2018-Feb-15 01:59N 36°43' W 076°13'2 3.7
2018-Feb-15 01:31N 36°43' W 076°15'1 1.5
2018-Feb-15 01:00N 36°44' W 076°16'2 3.9
2018-Feb-15 00:30N 36°45' W 076°18'1 2.5
2018-Feb-15 00:01N 36°46' W 076°18'0 0.0
2018-Feb-14 23:31N 36°46' W 076°18'2 3.5
2018-Feb-14 23:00N 36°48' W 076°18'3 5.9
2018-Feb-14 22:31N 36°51' W 076°17'2 2.1
2018-Feb-14 21:36N 36°50' W 076°15'0 4.0
2018-Feb-14 21:30N 36°50' W 076°15'1 2.9
2018-Feb-14 21:01N 36°50' W 076°17'3 5.6
2018-Feb-14 20:31N 36°52' W 076°20'1 1.5
2018-Feb-14 20:01N 36°53' W 076°20'0 0.0
2018-Feb-14 14:10N 36°53' W 076°20'0 0.0
2018-Feb-14 14:00N 36°53' W 076°20'1 1.7
2018-Feb-14 13:30N 36°54' W 076°20'3 5.4
2018-Feb-14 13:00N 36°56' W 076°20'1 0.9
2018-Feb-14 12:24N 36°57' W 076°20'1 2.0
2018-Feb-14 11:59N 36°56' W 076°20'0 1.0
2018-Feb-14 11:28N 36°56' W 076°20'3 5.5
2018-Feb-14 10:59N 36°53' W 076°20'0 0.2
2018-Feb-14 10:31N 36°53' W 076°20'2 3.3
2018-Feb-14 10:01N 36°52' W 076°19'3 5.7
2018-Feb-14 09:30N 36°49' W 076°17'1 2.4
2018-Feb-14 09:01N 36°48' W 076°17'0 0.0
2018-Feb-14 08:30N 36°48' W 076°17'1 1.2
2018-Feb-14 08:01N 36°49' W 076°17'0 0.0
2018-Feb-14 07:31N 36°49' W 076°17'0 0.0
2018-Feb-14 07:00N 36°49' W 076°17'0 0.0
2018-Feb-14 06:16N 36°49' W 076°17'0 0.0
2018-Feb-14 06:00N 36°49' W 076°17'0 0.0
2018-Feb-14 05:30N 36°49' W 076°17'0 0.0
2018-Feb-14 05:00N 36°49' W 076°17'0 0.0
2018-Feb-14 04:30N 36°49' W 076°17'0 0.0
2018-Feb-14 04:00N 36°49' W 076°17'0 0.0
2018-Feb-14 03:30N 36°49' W 076°17'0 0.0
2018-Feb-14 03:00N 36°49' W 076°17'0 0.0
2018-Feb-14 02:30N 36°49' W 076°17'0 0.0
2018-Feb-14 02:00N 36°49' W 076°17'0 0.0
2018-Feb-14 01:31N 36°49' W 076°17'0 0.0
2018-Feb-14 01:00N 36°48' W 076°17'0 0.1
2018-Feb-14 00:30N 36°49' W 076°17'0 0.0
2018-Feb-14 00:00N 36°49' W 076°17'0 0.0
2018-Feb-13 23:30N 36°49' W 076°17'2 4.3
2018-Feb-13 23:00N 36°51' W 076°18'3 6.2
2018-Feb-13 22:28N 36°53' W 076°20'0 0.6
2018-Feb-13 22:00N 36°53' W 076°20'0 0.2
2018-Feb-13 21:30N 36°53' W 076°20'2 4.8
2018-Feb-13 21:00N 36°55' W 076°20'1 1.8
2018-Feb-13 20:26N 36°56' W 076°20'0 1.1
2018-Feb-13 19:59N 36°56' W 076°20'2 3.6
2018-Feb-13 19:29N 36°54' W 076°20'4 7.4
2018-Feb-13 19:00N 36°51' W 076°18'2 4.7
2018-Feb-13 18:30N 36°49' W 076°17'0 0.8
2018-Feb-13 18:00N 36°49' W 076°17'0 0.0
2018-Feb-13 17:30N 36°48' W 076°17'0 0.0
2018-Feb-13 17:00N 36°48' W 076°17'0 0.0
2018-Feb-13 16:30N 36°48' W 076°17'0 0.0
2018-Feb-13 16:00N 36°48' W 076°17'0 0.0
2018-Feb-13 15:30N 36°48' W 076°17'1 1.1
2018-Feb-13 15:00N 36°48' W 076°18'2 3.2
2018-Feb-13 14:30N 36°46' W 076°18'0 0.2
2018-Feb-13 14:00N 36°46' W 076°18'1 1.0
2018-Feb-13 13:30N 36°47' W 076°18'3 5.4
2018-Feb-13 13:00N 36°49' W 076°17'1 2.5
2018-Feb-13 12:30N 36°50' W 076°17'2 0.1
2018-Feb-12 19:35N 36°48' W 076°17'1 7.2
2018-Feb-12 19:30N 36°48' W 076°18'2 3.6
2018-Feb-12 19:00N 36°46' W 076°18'1 1.5
2018-Feb-12 18:30N 36°47' W 076°18'1 2.3
2018-Feb-12 18:00N 36°48' W 076°18'0 0.0
2018-Feb-12 17:30N 36°48' W 076°18'1 1.0
2018-Feb-12 16:34N 36°48' W 076°17'0 0.0
2018-Feb-12 16:31N 36°48' W 076°17'1 3.0
2018-Feb-12 16:01N 36°47' W 076°18'1 2.6
2018-Feb-12 15:30N 36°46' W 076°18'0 0.1
2018-Feb-12 15:00N 36°46' W 076°18'0 0.0
2018-Feb-12 14:30N 36°46' W 076°18'2 4.3
2018-Feb-12 14:01N 36°48' W 076°18'3 5.6
2018-Feb-12 13:31N 36°51' W 076°18'3 5.3
2018-Feb-12 13:00N 36°53' W 076°20'0 0.3
2018-Feb-12 12:30N 36°53' W 076°20'0 0.1
2018-Feb-12 11:59N 36°53' W 076°20'3 5.7
2018-Feb-12 11:30N 36°51' W 076°18'3 5.2
2018-Feb-12 11:00N 36°49' W 076°17'0 0.0
2018-Feb-12 10:31N 36°49' W 076°17'0 0.0
2018-Feb-12 10:00N 36°49' W 076°17'0 0.0
2018-Feb-12 09:31N 36°49' W 076°17'0 0.0
2018-Feb-12 09:00N 36°49' W 076°17'0 0.0
2018-Feb-12 08:31N 36°49' W 076°17'0 0.0
2018-Feb-12 08:01N 36°49' W 076°17'0 0.0
2018-Feb-12 07:30N 36°49' W 076°17'0 0.0
2018-Feb-12 07:01N 36°49' W 076°17'0 0.0
2018-Feb-12 06:31N 36°49' W 076°17'0 0.0
2018-Feb-12 06:01N 36°49' W 076°17'0 0.0
2018-Feb-12 05:31N 36°49' W 076°17'0 0.0
2018-Feb-12 05:00N 36°49' W 076°17'0 0.0
2018-Feb-12 04:31N 36°49' W 076°17'0 0.0
2018-Feb-12 04:00N 36°49' W 076°17'0 0.0
2018-Feb-12 03:31N 36°49' W 076°17'0 0.0
2018-Feb-12 03:00N 36°49' W 076°17'0 0.0
2018-Feb-12 02:31N 36°49' W 076°17'0 0.0
2018-Feb-12 01:59N 36°49' W 076°17'0 0.0
2018-Feb-12 01:31N 36°49' W 076°17'0 0.0
2018-Feb-12 01:01N 36°49' W 076°17'0 0.0
2018-Feb-12 00:30N 36°49' W 076°17'0 0.0
2018-Feb-12 00:00N 36°49' W 076°17'0 0.0
2018-Feb-11 23:30N 36°49' W 076°17'0 0.0
2018-Feb-11 23:01N 36°49' W 076°17'0 0.0
2018-Feb-11 22:30N 36°49' W 076°17'0 0.0
2018-Feb-11 22:01N 36°49' W 076°17'0 0.0
2018-Feb-11 21:30N 36°49' W 076°17'0 0.0
2018-Feb-11 21:01N 36°49' W 076°17'0 0.1
2018-Feb-11 20:31N 36°48' W 076°17'0 0.0
2018-Feb-11 20:01N 36°48' W 076°17'0 0.0
2018-Feb-11 19:31N 36°48' W 076°17'0 0.1
2018-Feb-11 19:01N 36°49' W 076°17'0 0.0
2018-Feb-11 18:31N 36°48' W 076°17'0 0.0
2018-Feb-11 18:00N 36°49' W 076°17'0 0.0
2018-Feb-11 17:30N 36°49' W 076°17'0 0.0
2018-Feb-11 17:00N 36°49' W 076°17'0 0.0
2018-Feb-11 16:30N 36°48' W 076°17'0 0.0
2018-Feb-11 16:00N 36°49' W 076°17'0 0.0
2018-Feb-11 15:30N 36°49' W 076°17'0 0.0
2018-Feb-11 15:00N 36°48' W 076°17'0 0.0
2018-Feb-11 14:30N 36°48' W 076°17'0 0.0
2018-Feb-11 14:00N 36°49' W 076°17'0 0.0
2018-Feb-11 13:30N 36°49' W 076°17'0 0.0
2018-Feb-11 13:00N 36°48' W 076°17'0 0.0
2018-Feb-11 12:30N 36°49' W 076°17'0 0.0
2018-Feb-11 12:00N 36°48' W 076°17'0 0.0
2018-Feb-11 11:30N 36°48' W 076°17'0 0.0
2018-Feb-11 11:00N 36°49' W 076°17'0 0.0
2018-Feb-11 10:30N 36°48' W 076°17'0 0.0
2018-Feb-11 10:00N 36°49' W 076°17'0 0.0
2018-Feb-11 09:30N 36°49' W 076°17'0 0.0
2018-Feb-11 09:00N 36°49' W 076°17'0 0.0
2018-Feb-11 08:30N 36°48' W 076°17'0 0.0
2018-Feb-11 08:00N 36°49' W 076°17'0 0.0
2018-Feb-11 07:30N 36°49' W 076°17'0 0.0
2018-Feb-11 07:00N 36°48' W 076°17'0 0.0
2018-Feb-11 06:30N 36°48' W 076°17'0 0.0
2018-Feb-11 06:00N 36°49' W 076°17'0 0.0
2018-Feb-11 05:30N 36°48' W 076°17'0 0.0
2018-Feb-11 05:00N 36°48' W 076°17'0 0.0
2018-Feb-11 04:30N 36°48' W 076°17'0 0.0
2018-Feb-11 04:00N 36°49' W 076°17'0 0.0
2018-Feb-11 03:30N 36°49' W 076°17'0 0.0
2018-Feb-11 03:00N 36°49' W 076°17'0 0.0
2018-Feb-11 02:30N 36°48' W 076°17'0 0.0
2018-Feb-11 02:00N 36°48' W 076°17'0 0.0
2018-Feb-11 01:30N 36°49' W 076°17'0 0.0
2018-Feb-11 01:00N 36°48' W 076°17'0 0.0
2018-Feb-11 00:30N 36°48' W 076°17'0 0.0
2018-Feb-11 00:00N 36°48' W 076°17'0 0.0
2018-Feb-10 23:30N 36°48' W 076°17'0 0.0
2018-Feb-10 23:00N 36°49' W 076°17'0 0.0
2018-Feb-10 22:30N 36°48' W 076°17'0 0.0
2018-Feb-10 22:00N 36°49' W 076°17'0 0.0
2018-Feb-10 21:30N 36°48' W 076°17'0 0.0
2018-Feb-10 21:00N 36°48' W 076°17'0 0.0
2018-Feb-10 20:30N 36°49' W 076°17'0 0.0
2018-Feb-10 20:00N 36°48' W 076°17'0 0.0
2018-Feb-10 19:30N 36°49' W 076°17'0 0.0
2018-Feb-10 19:00N 36°48' W 076°17'0 0.0
2018-Feb-10 18:30N 36°48' W 076°17'0 0.0
2018-Feb-10 18:00N 36°49' W 076°17'0 0.0
2018-Feb-10 17:30N 36°49' W 076°17'0 0.0
2018-Feb-10 17:00N 36°49' W 076°17'0 0.0
2018-Feb-10 16:30N 36°48' W 076°17'0 0.0
2018-Feb-10 16:00N 36°48' W 076°17'0 0.0
2018-Feb-10 15:30N 36°48' W 076°17'0 0.0
2018-Feb-10 15:00N 36°49' W 076°17'0 0.0
2018-Feb-10 14:30N 36°49' W 076°17'0 0.0
2018-Feb-10 14:00N 36°48' W 076°17'0 0.0
2018-Feb-10 13:30N 36°49' W 076°17'0 0.0
2018-Feb-10 13:00N 36°49' W 076°17'0 0.0
2018-Feb-10 12:30N 36°48' W 076°17'  

Dump ship's entire track history